Time;durP1;ratioP1;P1;durP2;ratioP2;P2;SDS_P1;SDS_P2;PMS_P1;PMS_P2;Temp;Humidity;BMP_temperature;BMP_pressure;BME280_temperature;BME280_humidity;BME280_pressure;Samples;Min_cycle;Max_cycle;Signal;HPM_P1;HPM_P2
2021/06/11 00:01:09;;;;;;;11.10;8.90;;;17.40;91.10;;;;;;5084282;28;20036;-67
2021/06/11 00:03:36;;;;;;;13.82;9.18;;;17.30;91.00;;;;;;5090605;28;20462;-67
2021/06/11 00:06:02;;;;;;;10.55;8.90;;;17.30;91.10;;;;;;5089597;28;20520;-67
2021/06/11 00:08:29;;;;;;;11.20;8.77;;;17.30;91.20;;;;;;5086278;28;20044;-67
2021/06/11 00:10:55;;;;;;;9.77;8.07;;;17.30;91.30;;;;;;5083908;28;20109;-67
2021/06/11 00:13:20;;;;;;;9.75;8.25;;;17.20;91.30;;;;;;5085423;28;20052;-67
2021/06/11 00:15:46;;;;;;;9.68;7.63;;;17.20;91.40;;;;;;5091540;28;20073;-67
2021/06/11 00:18:12;;;;;;;11.10;9.27;;;17.10;91.40;;;;;;5091747;28;20032;-67
2021/06/11 00:20:37;;;;;;;9.80;7.60;;;17.10;91.50;;;;;;5070717;28;20024;-67
2021/06/11 00:23:03;;;;;;;9.10;7.75;;;17.10;91.40;;;;;;5083634;28;20310;-67
2021/06/11 00:25:28;;;;;;;9.55;7.32;;;17.00;91.40;;;;;;5088147;28;20028;-67
2021/06/11 00:27:58;;;;;;;8.82;7.32;;;17.00;91.50;;;;;;5086794;28;20046;-67
2021/06/11 00:30:24;;;;;;;9.38;7.28;;;16.90;91.50;;;;;;5086047;28;20389;-67
2021/06/11 00:32:50;;;;;;;8.80;7.68;;;16.90;91.90;;;;;;5083696;28;20032;-67
2021/06/11 00:35:16;;;;;;;9.40;8.40;;;16.80;91.70;;;;;;5071567;28;20062;-67
2021/06/11 00:37:41;;;;;;;11.00;8.68;;;16.70;91.80;;;;;;5088126;28;20094;-67
2021/06/11 00:40:10;;;;;;;11.70;9.23;;;16.70;91.90;;;;;;5088142;28;20073;-67
2021/06/11 00:42:35;;;;;;;14.98;10.18;;;16.70;92.00;;;;;;5087325;28;20366;-67
2021/06/11 00:45:03;;;;;;;11.38;8.82;;;16.70;92.10;;;;;;5088296;28;20054;-67
2021/06/11 00:47:29;;;;;;;10.68;9.38;;;16.60;92.10;;;;;;5084172;28;20024;-67
2021/06/11 00:49:55;;;;;;;14.23;10.70;;;16.60;92.20;;;;;;5084270;28;20094;-67
2021/06/11 00:52:20;;;;;;;14.02;10.02;;;16.60;92.20;;;;;;5086374;28;20103;-67
2021/06/11 00:54:46;;;;;;;13.80;10.32;;;16.60;92.20;;;;;;5070451;28;20036;-67
2021/06/11 00:57:12;;;;;;;11.18;9.75;;;16.60;92.30;;;;;;5090557;28;20028;-67
2021/06/11 00:59:40;;;;;;;9.98;8.93;;;16.60;92.30;;;;;;5087281;28;20024;-67
2021/06/11 01:02:07;;;;;;;9.85;8.85;;;16.50;92.30;;;;;;5083650;28;20078;-67
2021/06/11 01:04:32;;;;;;;10.88;9.05;;;16.50;92.40;;;;;;5088605;28;20024;-66
2021/06/11 01:07:00;;;;;;;11.48;10.00;;;16.50;92.40;;;;;;5088689;28;20032;-67
2021/06/11 01:09:27;;;;;;;13.20;9.63;;;16.50;92.50;;;;;;5081397;28;20024;-67
2021/06/11 01:11:52;;;;;;;11.32;9.20;;;16.40;92.50;;;;;;5082267;28;20427;-67
2021/06/11 01:14:18;;;;;;;12.13;8.75;;;16.40;92.60;;;;;;5085848;28;20054;-67
2021/06/11 01:16:44;;;;;;;11.20;8.65;;;16.40;92.70;;;;;;5089535;28;20028;-67
2021/06/11 01:19:11;;;;;;;11.63;9.98;;;16.40;92.70;;;;;;5084201;28;20493;-67
2021/06/11 01:21:52;;;;;;;11.82;9.77;;;16.40;92.70;;;;;;5086400;28;20076;-67
2021/06/11 01:24:22;;;;;;;11.60;9.75;;;16.40;92.70;;;;;;5087382;28;20043;-67
2021/06/11 01:26:53;;;;;;;10.50;9.20;;;16.30;92.80;;;;;;5084624;28;20114;-67
2021/06/11 01:29:30;;;;;;;12.05;10.23;;;16.30;92.70;;;;;;5078805;28;20032;-67
2021/06/11 01:32:03;;;;;;;13.70;11.57;;;16.20;92.80;;;;;;5091476;28;20157;-67
2021/06/11 01:34:34;;;;;;;14.15;11.35;;;16.20;92.90;;;;;;5094907;28;20048;-67
2021/06/11 01:37:09;;;;;;;14.65;11.18;;;16.20;93.00;;;;;;5089847;28;20382;-66
2021/06/11 01:39:38;;;;;;;11.43;10.23;;;16.10;93.30;;;;;;5087495;28;20496;-66
2021/06/11 01:42:05;;;;;;;12.15;10.75;;;16.20;93.10;;;;;;5085959;28;20418;-66
2021/06/11 01:44:32;;;;;;;15.85;11.98;;;16.10;93.00;;;;;;5086266;28;20021;-66
2021/06/11 01:47:00;;;;;;;16.98;12.80;;;16.10;93.10;;;;;;5071722;28;20020;-66
2021/06/11 01:49:28;;;;;;;15.35;12.85;;;16.10;93.20;;;;;;5085710;28;20096;-67
2021/06/11 01:51:59;;;;;;;14.00;12.15;;;16.10;93.30;;;;;;5089981;28;20069;-66
2021/06/11 01:54:28;;;;;;;17.33;14.75;;;16.00;93.30;;;;;;5088060;28;20385;-66
2021/06/11 01:56:55;;;;;;;18.38;15.32;;;16.00;93.30;;;;;;5079479;28;20040;-66
2021/06/11 01:59:21;;;;;;;21.83;17.20;;;16.10;93.40;;;;;;5086354;28;20134;-66
2021/06/11 02:01:47;;;;;;;24.88;18.17;;;16.10;93.50;;;;;;5085495;28;20128;-66
2021/06/11 02:04:13;;;;;;;22.80;17.63;;;16.10;93.50;;;;;;5087448;28;20500;-66
2021/06/11 02:06:41;;;;;;;22.05;18.63;;;16.10;93.60;;;;;;5066024;28;20115;-66
2021/06/11 02:09:08;;;;;;;23.95;18.00;;;16.10;93.60;;;;;;5086423;28;20478;-66
2021/06/11 02:11:41;;;;;;;24.35;18.63;;;16.20;93.70;;;;;;5090377;28;20103;-66
2021/06/11 02:14:09;;;;;;;;;;;16.20;93.70;;;;;;5091605;28;20028;-66
2021/06/11 02:16:34;;;;;;;21.05;17.40;;;16.20;93.60;;;;;;5087914;28;19914;-66
2021/06/11 02:19:03;;;;;;;25.83;19.85;;;16.20;93.60;;;;;;5089261;28;20032;-66
2021/06/11 02:21:30;;;;;;;24.38;19.23;;;16.20;93.60;;;;;;5091117;28;20501;-66
2021/06/11 02:23:57;;;;;;;25.63;20.42;;;16.20;93.60;;;;;;5085733;28;20119;-66
2021/06/11 02:26:25;;;;;;;26.75;21.77;;;16.20;93.70;;;;;;5091703;28;20073;-67
2021/06/11 02:28:52;;;;;;;24.83;19.13;;;16.10;93.70;;;;;;5090722;28;20032;-66
2021/06/11 02:31:19;;;;;;;24.88;18.88;;;16.10;93.70;;;;;;5086719;28;20020;-66
2021/06/11 02:33:45;;;;;;;22.83;18.48;;;16.00;93.70;;;;;;5087918;28;20078;-67
2021/06/11 02:36:10;;;;;;;20.33;17.05;;;16.00;94.00;;;;;;5093234;28;20016;-66
2021/06/11 02:38:36;;;;;;;22.83;18.98;;;15.90;93.60;;;;;;5087898;28;20024;-66
2021/06/11 02:41:02;;;;;;;26.15;21.10;;;15.90;93.70;;;;;;5093741;28;20036;-66
2021/06/11 02:43:29;;;;;;;22.85;17.77;;;15.80;93.80;;;;;;5089780;28;20024;-66
2021/06/11 02:46:12;;;;;;;24.58;18.70;;;15.70;93.80;;;;;;5091606;28;20024;-66
2021/06/11 02:48:46;;;;;;;24.50;20.55;;;15.70;93.80;;;;;;5070954;28;20149;-67
2021/06/11 02:51:36;;;;;;;29.55;21.90;;;15.60;93.90;;;;;;5087702;28;20107;-67
2021/06/11 02:54:04;;;;;;;30.10;23.00;;;15.60;93.90;;;;;;5073209;28;20032;-67
2021/06/11 02:56:41;;;;;;;29.95;23.17;;;15.50;94.00;;;;;;5070079;28;20028;-67
2021/06/11 02:59:39;;;;;;;32.63;23.77;;;15.50;94.10;;;;;;5091760;28;20450;-67
2021/06/11 03:02:10;;;;;;;28.10;21.83;;;15.40;94.30;;;;;;5070057;28;20576;-67
2021/06/11 03:04:43;;;;;;;29.90;22.95;;;15.40;94.20;;;;;;5084699;28;20056;-67
2021/06/11 03:07:11;;;;;;;33.53;25.58;;;15.40;94.30;;;;;;5087012;28;20039;-67
2021/06/11 03:09:39;;;;;;;30.63;24.42;;;15.30;94.30;;;;;;5090987;28;20029;-67
2021/06/11 03:12:06;;;;;;;27.58;22.77;;;15.30;94.30;;;;;;5076186;28;20020;-65
2021/06/11 03:14:33;;;;;;;17.23;13.10;;;15.20;94.40;;;;;;5086976;28;20023;-67
2021/06/11 03:17:03;;;;;;;14.38;12.02;;;15.20;94.30;;;;;;5086889;28;20091;-67
2021/06/11 03:19:37;;;;;;;19.77;15.82;;;15.20;94.20;;;;;;5089862;28;20020;-67
2021/06/11 03:22:18;;;;;;;25.30;19.25;;;15.10;94.30;;;;;;5086996;28;20835;-65
2021/06/11 03:24:52;;;;;;;22.95;19.65;;;15.10;94.40;;;;;;5086148;28;20490;-67
2021/06/11 03:27:22;;;;;;;28.77;21.27;;;15.10;94.40;;;;;;5092392;28;20493;-68
2021/06/11 03:29:57;;;;;;;16.52;12.82;;;15.10;94.50;;;;;;5069688;28;20016;-67
2021/06/11 03:32:27;;;;;;;17.73;14.48;;;15.10;94.40;;;;;;5072702;28;20043;-65
2021/06/11 03:34:55;;;;;;;15.38;13.20;;;15.00;94.30;;;;;;5089121;28;20197;-67
2021/06/11 03:37:24;;;;;;;17.08;13.95;;;15.00;94.30;;;;;;5090385;28;20103;-67
2021/06/11 03:39:59;;;;;;;21.85;16.52;;;15.00;94.40;;;;;;5071005;28;20153;-67
2021/06/11 03:42:28;;;;;;;25.35;18.33;;;14.90;94.50;;;;;;5087214;28;20024;-67
2021/06/11 03:44:55;;;;;;;21.73;17.40;;;15.00;94.60;;;;;;5087847;28;20486;-67
2021/06/11 03:47:23;;;;;;;24.80;18.13;;;14.90;94.70;;;;;;5089050;28;20035;-66
2021/06/11 03:49:51;;;;;;;27.50;18.15;;;15.00;95.00;;;;;;5091429;28;20080;-65
2021/06/11 03:52:26;;;;;;;21.98;17.02;;;15.00;94.80;;;;;;5085238;28;20103;-65
2021/06/11 03:54:55;;;;;;;22.85;17.02;;;15.00;94.80;;;;;;5090582;28;20067;-67
2021/06/11 03:57:26;;;;;;;23.10;16.45;;;15.10;94.80;;;;;;5089801;28;20116;-67
2021/06/11 03:59:53;;;;;;;20.52;16.02;;;15.10;94.80;;;;;;5071896;28;20040;-67
2021/06/11 04:02:18;;;;;;;22.85;17.70;;;15.10;94.80;;;;;;5088736;28;20054;-65
2021/06/11 04:04:44;;;;;;;24.02;18.83;;;15.10;94.80;;;;;;5088797;28;20032;-65
2021/06/11 04:07:35;;;;;;;26.08;17.75;;;15.20;94.80;;;;;;5092502;28;20040;-65
2021/06/11 04:10:08;;;;;;;22.60;17.90;;;15.20;94.70;;;;;;5086962;28;20058;-67
2021/06/11 04:12:53;;;;;;;22.67;17.27;;;15.20;94.70;;;;;;5087565;28;20031;-67
2021/06/11 04:15:19;;;;;;;22.10;17.60;;;15.20;94.70;;;;;;5085894;28;20051;-67
2021/06/11 04:17:50;;;;;;;23.65;18.33;;;15.30;94.80;;;;;;5089600;28;20064;-65
2021/06/11 04:20:22;;;;;;;27.77;19.70;;;15.40;94.80;;;;;;5083212;28;20028;-65
2021/06/11 04:22:49;;;;;;;30.65;19.35;;;15.40;94.80;;;;;;5084266;28;20035;-67
2021/06/11 04:25:16;;;;;;;25.33;19.00;;;15.50;94.80;;;;;;5087876;28;20032;-67
2021/06/11 04:27:44;;;;;;;23.88;18.63;;;15.60;94.80;;;;;;5090573;28;20028;-67
2021/06/11 04:30:11;;;;;;;28.52;19.55;;;15.60;94.80;;;;;;5085730;28;20034;-65
2021/06/11 04:32:37;;;;;;;23.95;18.85;;;15.70;94.80;;;;;;5068807;28;20055;-65
2021/06/11 04:35:03;;;;;;;26.73;17.95;;;15.80;94.80;;;;;;5066759;28;20430;-67
2021/06/11 04:37:29;;;;;;;24.77;18.20;;;15.80;94.70;;;;;;5083218;28;20101;-67
2021/06/11 04:39:54;;;;;;;23.25;17.38;;;15.90;94.70;;;;;;5090026;28;20466;-66
2021/06/11 04:42:23;;;;;;;23.20;16.10;;;16.00;94.60;;;;;;5084458;28;20070;-66
2021/06/11 04:44:48;;;;;;;20.77;15.48;;;16.10;94.70;;;;;;5084760;28;20035;-66
2021/06/11 04:47:14;;;;;;;22.35;15.30;;;16.20;94.70;;;;;;5086806;28;20031;-66
2021/06/11 04:49:39;;;;;;;23.38;15.75;;;16.40;94.60;;;;;;5084734;28;20020;-67
2021/06/11 04:52:05;;;;;;;21.02;14.48;;;16.50;94.50;;;;;;5081642;28;20096;-67
2021/06/11 04:54:31;;;;;;;21.83;15.82;;;16.60;94.30;;;;;;5085411;28;20512;-66
2021/06/11 04:56:56;;;;;;;19.27;14.48;;;16.70;94.20;;;;;;5070342;28;20027;-66
2021/06/11 04:59:22;;;;;;;18.52;13.70;;;16.70;94.10;;;;;;5088378;28;20073;-67
2021/06/11 05:01:47;;;;;;;18.77;14.18;;;16.80;94.10;;;;;;5087020;28;20110;-66
2021/06/11 05:04:13;;;;;;;21.42;16.48;;;16.90;94.00;;;;;;5089331;28;20061;-67
2021/06/11 05:06:39;;;;;;;19.08;13.60;;;16.90;93.90;;;;;;5084652;28;20107;-67
2021/06/11 05:09:05;;;;;;;19.58;14.05;;;16.90;93.90;;;;;;5087178;28;20043;-67
2021/06/11 05:11:30;;;;;;;19.77;13.38;;;17.00;93.90;;;;;;5086246;28;20058;-66
2021/06/11 05:13:56;;;;;;;18.65;13.55;;;17.00;93.80;;;;;;5086815;28;20091;-66
2021/06/11 05:16:21;;;;;;;18.13;11.95;;;17.00;93.80;;;;;;5073000;28;20024;-67
2021/06/11 05:18:47;;;;;;;20.15;12.75;;;17.00;93.80;;;;;;5088993;28;20031;-66
2021/06/11 05:21:12;;;;;;;20.40;13.35;;;17.00;93.80;;;;;;5085181;28;20060;-66
2021/06/11 05:23:38;;;;;;;21.10;13.23;;;17.00;93.80;;;;;;5086847;28;20064;-66
2021/06/11 05:26:04;;;;;;;18.25;11.93;;;17.10;93.70;;;;;;5083312;28;20410;-66
2021/06/11 05:28:29;;;;;;;22.02;13.18;;;17.10;93.70;;;;;;5089686;28;20024;-66
2021/06/11 05:30:56;;;;;;;21.35;13.35;;;17.10;93.60;;;;;;5088615;28;20020;-66
2021/06/11 05:33:22;;;;;;;22.95;14.20;;;17.20;93.60;;;;;;5088239;28;20413;-66
2021/06/11 05:35:48;;;;;;;24.85;15.20;;;17.20;93.60;;;;;;5083900;28;20027;-67
2021/06/11 05:38:15;;;;;;;22.80;14.73;;;17.20;93.70;;;;;;5084490;28;20123;-66
2021/06/11 05:40:40;;;;;;;22.38;14.23;;;17.40;93.70;;;;;;5087193;28;20433;-67
2021/06/11 05:43:07;;;;;;;25.30;15.73;;;17.60;93.60;;;;;;5089154;28;20020;-67
2021/06/11 05:45:33;;;;;;;28.90;19.02;;;17.70;93.20;;;;;;5070035;28;20125;-65
2021/06/11 05:48:00;;;;;;;29.40;18.40;;;17.80;93.00;;;;;;5089395;28;20028;-66
2021/06/11 05:50:26;;;;;;;30.10;18.58;;;17.90;92.90;;;;;;5070693;28;20020;-65
2021/06/11 05:52:53;;;;;;;28.38;19.55;;;17.90;92.80;;;;;;5085200;28;20024;-66
2021/06/11 05:55:19;;;;;;;29.55;21.40;;;17.90;92.70;;;;;;5090259;28;20548;-66
2021/06/11 05:57:44;;;;;;;37.15;23.00;;;18.00;92.80;;;;;;5088318;28;20024;-65
2021/06/11 06:00:10;;;;;;;35.92;23.20;;;18.10;92.60;;;;;;5082351;28;20063;-67
2021/06/11 06:02:36;;;;;;;37.35;24.08;;;18.00;92.40;;;;;;5087516;28;20052;-67
2021/06/11 06:05:03;;;;;;;39.10;25.52;;;18.10;92.30;;;;;;5081596;28;20101;-66
2021/06/11 06:07:28;;;;;;;43.88;26.08;;;18.00;92.20;;;;;;5070113;28;20173;-66
2021/06/11 06:09:55;;;;;;;43.90;24.98;;;17.90;92.30;;;;;;5089967;28;20099;-66
2021/06/11 06:12:20;;;;;;;42.70;25.05;;;17.90;92.30;;;;;;5085831;28;20039;-67
2021/06/11 06:14:46;;;;;;;53.58;28.92;;;17.90;92.40;;;;;;5089418;28;20525;-66
2021/06/11 06:17:11;;;;;;;50.50;27.13;;;17.90;92.20;;;;;;5085691;28;20436;-65
2021/06/11 06:19:37;;;;;;;56.08;29.33;;;17.90;92.20;;;;;;5087245;28;20052;-66
2021/06/11 06:22:03;;;;;;;49.53;28.48;;;17.90;92.20;;;;;;5084951;28;20032;-65
2021/06/11 06:24:29;;;;;;;49.88;26.42;;;17.90;92.20;;;;;;5065954;28;20024;-65
2021/06/11 06:26:54;;;;;;;46.33;26.05;;;17.80;92.20;;;;;;5081696;28;20097;-66
2021/06/11 06:29:20;;;;;;;57.22;29.00;;;17.90;92.30;;;;;;5081057;28;20081;-65
2021/06/11 06:31:46;;;;;;;46.75;28.17;;;18.00;92.20;;;;;;5085749;28;20024;-66
2021/06/11 06:34:12;;;;;;;47.63;28.73;;;18.10;92.20;;;;;;5083007;28;20070;-65
2021/06/11 06:36:38;;;;;;;45.65;27.85;;;18.20;92.00;;;;;;5063968;28;20024;-66
2021/06/11 06:39:06;;;;;;;47.50;27.52;;;18.30;92.10;;;;;;5071648;28;20016;-66
2021/06/11 06:41:32;;;;;;;44.08;26.88;;;18.50;91.80;;;;;;5084754;28;20024;-65
2021/06/11 06:43:58;;;;;;;40.63;25.08;;;18.60;91.60;;;;;;5086874;28;20024;-65
2021/06/11 06:46:24;;;;;;;47.60;28.75;;;18.70;91.40;;;;;;5069618;28;20037;-65
2021/06/11 06:48:50;;;;;;;40.80;26.63;;;18.80;91.30;;;;;;5082001;28;20031;-66
2021/06/11 06:51:18;;;;;;;40.50;25.40;;;19.10;91.20;;;;;;5086655;28;20052;-66
2021/06/11 06:53:44;;;;;;;43.20;27.80;;;19.20;91.00;;;;;;5088294;28;20036;-65
2021/06/11 06:56:09;;;;;;;43.85;28.27;;;19.40;90.70;;;;;;5079164;28;20036;-66
2021/06/11 06:58:38;;;;;;;49.25;27.30;;;19.60;90.50;;;;;;5087992;28;20028;-66
2021/06/11 07:01:04;;;;;;;40.88;24.80;;;19.80;90.00;;;;;;5085614;28;20039;-66
2021/06/11 07:03:31;;;;;;;37.35;23.63;;;19.70;89.20;;;;;;5091670;28;20035;-65
2021/06/11 07:05:57;;;;;;;32.35;22.98;;;19.50;89.30;;;;;;5088011;28;20028;-66
2021/06/11 07:08:25;;;;;;;39.50;25.85;;;19.40;89.70;;;;;;5068486;28;20129;-65
2021/06/11 07:10:51;;;;;;;41.67;26.02;;;19.40;89.90;;;;;;5088782;28;20039;-66
2021/06/11 07:13:16;;;;;;;40.80;26.60;;;19.50;89.80;;;;;;5088316;28;20024;-66
2021/06/11 07:15:42;;;;;;;37.47;24.77;;;19.60;89.30;;;;;;5086014;28;20028;-65
2021/06/11 07:18:08;;;;;;;36.13;24.77;;;19.70;89.20;;;;;;5085393;28;20024;-66
2021/06/11 07:20:34;;;;;;;33.85;23.13;;;19.70;89.00;;;;;;5088212;28;20115;-65
2021/06/11 07:22:59;;;;;;;37.88;24.75;;;19.70;88.50;;;;;;5085926;28;20422;-66
2021/06/11 07:25:25;;;;;;;32.83;22.67;;;19.70;88.80;;;;;;5088292;28;20484;-65
2021/06/11 07:27:50;;;;;;;35.03;23.88;;;19.80;88.40;;;;;;5087378;28;20149;-66
2021/06/11 07:30:17;;;;;;;35.83;22.63;;;20.00;88.00;;;;;;5087348;28;20039;-65
2021/06/11 07:32:42;;;;;;;34.03;23.90;;;20.10;87.60;;;;;;5088554;28;20038;-65
2021/06/11 07:35:09;;;;;;;30.42;21.33;;;20.00;87.50;;;;;;5090468;28;20020;-66
2021/06/11 07:37:36;;;;;;;31.40;21.52;;;20.20;87.60;;;;;;5085690;28;20035;-66
2021/06/11 07:40:06;;;;;;;35.45;23.90;;;20.30;87.60;;;;;;5087421;28;20074;-66
2021/06/11 07:42:32;;;;;;;34.63;23.55;;;20.50;86.70;;;;;;5083208;28;20024;-66
2021/06/11 07:44:57;;;;;;;31.40;21.83;;;20.50;86.30;;;;;;5079607;28;20057;-66
2021/06/11 07:47:23;;;;;;;29.17;19.80;;;20.50;86.40;;;;;;5080080;28;20031;-67
2021/06/11 07:49:48;;;;;;;32.33;22.08;;;20.50;86.40;;;;;;5083516;28;20099;-66
2021/06/11 07:52:14;;;;;;;34.97;22.33;;;20.50;86.10;;;;;;5086483;28;20044;-66
2021/06/11 07:54:39;;;;;;;28.92;19.55;;;20.60;86.00;;;;;;5088132;28;20127;-66
2021/06/11 07:57:05;;;;;;;29.48;20.33;;;20.60;86.00;;;;;;5082078;28;20544;-66
2021/06/11 07:59:31;;;;;;;33.40;21.90;;;20.70;86.10;;;;;;5081411;28;20036;-66
2021/06/11 08:01:56;;;;;;;30.13;21.02;;;20.80;85.50;;;;;;5069722;28;20024;-66
2021/06/11 08:04:22;;;;;;;29.27;21.55;;;20.90;85.40;;;;;;5085373;28;20032;-67
2021/06/11 08:06:48;;;;;;;29.17;21.30;;;20.90;85.00;;;;;;5080664;28;20063;-67
2021/06/11 08:09:14;;;;;;;29.52;19.60;;;21.00;84.20;;;;;;5084410;28;20052;-67
2021/06/11 08:11:42;;;;;;;31.23;20.40;;;21.00;84.10;;;;;;5086055;28;20020;-66
2021/06/11 08:14:08;;;;;;;30.65;21.58;;;21.10;84.30;;;;;;5083650;28;20816;-66
2021/06/11 08:16:34;;;;;;;27.80;20.33;;;21.20;84.10;;;;;;5084366;28;20028;-65
2021/06/11 08:18:59;;;;;;;26.63;19.65;;;21.30;83.90;;;;;;5085161;28;20539;-66
2021/06/11 08:21:25;;;;;;;30.02;20.27;;;21.50;83.50;;;;;;5085863;28;20112;-66
2021/06/11 08:23:50;;;;;;;27.55;20.60;;;21.60;82.80;;;;;;5077327;28;20016;-66
2021/06/11 08:26:16;;;;;;;25.98;17.98;;;21.70;82.30;;;;;;5088333;28;20033;-67
2021/06/11 08:28:41;;;;;;;26.65;18.42;;;21.70;82.10;;;;;;5075796;28;20028;-66
2021/06/11 08:31:07;;;;;;;29.15;20.30;;;21.70;82.40;;;;;;5084924;28;20027;-66
2021/06/11 08:33:33;;;;;;;24.70;16.60;;;21.90;82.30;;;;;;5076537;28;20063;-66
2021/06/11 08:35:59;;;;;;;24.50;15.38;;;22.00;81.60;;;;;;5086520;28;20055;-66
2021/06/11 08:38:25;;;;;;;27.48;18.25;;;22.00;80.80;;;;;;5084697;28;20063;-66
2021/06/11 08:40:51;;;;;;;23.27;16.27;;;22.00;80.40;;;;;;5087069;28;20031;-66
2021/06/11 08:43:18;;;;;;;21.95;15.32;;;22.00;80.40;;;;;;5089632;28;20385;-66
2021/06/11 08:45:44;;;;;;;23.77;16.40;;;22.00;80.30;;;;;;5088220;28;20062;-66
2021/06/11 08:48:10;;;;;;;27.60;16.33;;;22.10;80.30;;;;;;5083371;28;20443;-66
2021/06/11 08:50:36;;;;;;;22.90;16.85;;;22.30;80.20;;;;;;5088398;28;20023;-66
2021/06/11 08:53:04;;;;;;;22.67;16.10;;;22.40;79.90;;;;;;5084692;28;20043;-66
2021/06/11 08:55:31;;;;;;;24.88;17.33;;;22.60;79.40;;;;;;5078627;28;20107;-67
2021/06/11 08:57:56;;;;;;;21.40;14.57;;;22.70;78.40;;;;;;5078164;28;20024;-67
2021/06/11 09:00:23;;;;;;;20.20;15.07;;;22.70;78.10;;;;;;5083349;28;20447;-67
2021/06/11 09:03:12;;;;;;;23.30;14.73;;;22.90;77.80;;;;;;5090268;28;20053;-67
2021/06/11 09:05:40;;;;;;;22.30;15.88;;;23.10;77.50;;;;;;5088844;28;20040;-67
2021/06/11 09:08:21;;;;;;;20.38;15.15;;;23.20;77.00;;;;;;5083666;28;20036;-67
2021/06/11 09:10:48;;;;;;;22.58;16.00;;;23.30;76.80;;;;;;5075644;28;20021;-67
2021/06/11 09:13:28;;;;;;;19.25;14.55;;;23.40;76.30;;;;;;5086866;28;20110;-67
2021/06/11 09:16:16;;;;;;;22.20;15.43;;;23.40;76.30;;;;;;5083034;28;20529;-66
2021/06/11 09:18:48;;;;;;;19.13;14.27;;;23.60;75.30;;;;;;5080761;28;20032;-67
2021/06/11 09:21:32;;;;;;;21.05;14.23;;;23.60;74.70;;;;;;5088352;28;20043;-67
2021/06/11 09:24:26;;;;;;;19.90;14.18;;;23.80;74.10;;;;;;5090855;28;20032;-67
2021/06/11 09:26:57;;;;;;;16.60;13.23;;;23.90;73.70;;;;;;5084538;28;20036;-67
2021/06/11 09:29:45;;;;;;;17.50;12.90;;;23.90;73.70;;;;;;5080731;28;20050;-67
2021/06/11 09:32:31;;;;;;;12.02;9.73;;;24.00;73.40;;;;;;5086545;28;20022;-67
2021/06/11 09:35:05;;;;;;;15.75;12.57;;;24.10;72.40;;;;;;5081611;28;20024;-66
2021/06/11 09:37:37;;;;;;;16.52;13.20;;;24.10;71.80;;;;;;5085651;28;20031;-67
2021/06/11 09:40:10;;;;;;;13.68;10.68;;;24.20;71.80;;;;;;5089458;28;20032;-66
2021/06/11 09:42:37;;;;;;;16.33;12.15;;;24.20;71.80;;;;;;5091464;28;20028;-67
2021/06/11 09:45:13;;;;;;;11.05;9.05;;;24.30;70.90;;;;;;5079447;28;20031;-66
2021/06/11 09:47:43;;;;;;;14.63;10.85;;;24.50;70.80;;;;;;5062253;28;20032;-66
2021/06/11 09:50:09;;;;;;;12.48;9.75;;;24.50;70.40;;;;;;5064270;28;20021;-66
2021/06/11 09:52:55;;;;;;;15.98;13.45;;;24.50;70.70;;;;;;5092292;28;20354;-67
2021/06/11 09:55:41;;;;;;;14.95;12.80;;;24.70;70.00;;;;;;5082507;28;20032;-67
2021/06/11 09:58:08;;;;;;;16.33;12.07;;;24.80;70.00;;;;;;5087508;28;20081;-67
2021/06/11 10:00:37;;;;;;;15.05;11.27;;;24.90;69.80;;;;;;5088375;28;20036;-67
2021/06/11 10:03:09;;;;;;;16.67;13.75;;;25.10;70.10;;;;;;5065313;28;20024;-66
2021/06/11 10:05:36;;;;;;;14.02;12.00;;;25.20;69.80;;;;;;5076371;28;20078;-66
2021/06/11 10:08:03;;;;;;;12.57;11.18;;;25.30;69.50;;;;;;5078810;28;20056;-65
2021/06/11 10:10:28;;;;;;;12.18;9.48;;;25.30;69.20;;;;;;5082780;28;20028;-66
2021/06/11 10:12:54;;;;;;;9.27;7.53;;;25.40;68.60;;;;;;5092322;28;20024;-66
2021/06/11 10:15:20;;;;;;;8.23;7.10;;;25.40;68.00;;;;;;5062874;28;20102;-66
2021/06/11 10:17:46;;;;;;;11.68;9.25;;;25.50;67.60;;;;;;5081989;28;20107;-66
2021/06/11 10:20:13;;;;;;;14.75;11.05;;;25.50;67.80;;;;;;5080699;28;20412;-66
2021/06/11 10:22:39;;;;;;;12.82;10.15;;;25.60;66.90;;;;;;5090275;28;20031;-66
2021/06/11 10:25:11;;;;;;;11.90;8.90;;;25.50;66.60;;;;;;5083486;28;20032;-65
2021/06/11 10:27:39;;;;;;;9.65;7.32;;;25.40;67.10;;;;;;5090946;28;20032;-66
2021/06/11 10:30:05;;;;;;;9.50;6.72;;;25.60;66.70;;;;;;5081732;28;20028;-66
2021/06/11 10:32:38;;;;;;;13.25;9.48;;;25.50;66.70;;;;;;5082160;28;20115;-66
2021/06/11 10:35:04;;;;;;;13.55;10.07;;;25.40;65.70;;;;;;5087681;28;20114;-66
2021/06/11 10:37:34;;;;;;;14.80;10.15;;;25.30;66.40;;;;;;5094210;28;20478;-66
2021/06/11 10:40:32;;;;;;;9.45;6.82;;;25.30;66.90;;;;;;5092001;28;20039;-66
2021/06/11 10:43:21;;;;;;;8.40;6.40;;;25.30;66.90;;;;;;5075271;28;20032;-66
2021/06/11 10:45:47;;;;;;;12.93;10.15;;;25.60;65.70;;;;;;5088945;28;20032;-66
2021/06/11 10:48:13;;;;;;;14.90;11.68;;;25.70;65.50;;;;;;5080330;28;20088;-66
2021/06/11 10:50:39;;;;;;;14.02;10.45;;;25.80;64.20;;;;;;5068903;28;20024;-66
2021/06/11 10:53:37;;;;;;;13.82;9.70;;;25.80;65.10;;;;;;5080073;28;20021;-66
2021/06/11 10:56:18;;;;;;;12.77;9.40;;;25.90;64.90;;;;;;5036361;28;20037;-65
2021/06/11 10:58:45;;;;;;;9.07;7.30;;;26.00;65.30;;;;;;5084390;28;20104;-66
2021/06/11 11:01:28;;;;;;;12.57;9.00;;;26.20;64.60;;;;;;5086254;28;20056;-66
2021/06/11 11:03:56;;;;;;;9.68;7.35;;;26.40;63.40;;;;;;5094446;28;20060;-65
2021/06/11 11:06:27;;;;;;;11.35;10.15;;;26.60;63.00;;;;;;5087035;28;20032;-66
2021/06/11 11:08:55;;;;;;;13.38;11.80;;;26.70;63.20;;;;;;5087653;28;20032;-66
2021/06/11 11:11:40;;;;;;;17.23;13.43;;;26.60;62.80;;;;;;5093966;28;20032;-66
2021/06/11 11:14:27;;;;;;;18.33;12.85;;;26.50;62.50;;;;;;5082578;28;20417;-66
2021/06/11 11:16:58;;;;;;;16.88;13.02;;;26.40;63.20;;;;;;5086870;28;20039;-66
2021/06/11 11:19:44;;;;;;;15.45;12.35;;;26.20;63.30;;;;;;5092192;28;20028;-66
2021/06/11 11:22:25;;;;;;;10.93;9.10;;;26.10;62.80;;;;;;5081813;28;20136;-66
2021/06/11 11:24:53;;;;;;;12.70;10.67;;;26.10;63.10;;;;;;5062752;28;20390;-66
2021/06/11 11:27:19;;;;;;;14.25;12.23;;;26.10;63.10;;;;;;5088454;28;20286;-66
2021/06/11 11:29:45;;;;;;;12.52;10.93;;;26.30;63.00;;;;;;5095096;28;20470;-66
2021/06/11 11:32:11;;;;;;;11.32;9.25;;;26.30;62.10;;;;;;5083310;28;20024;-66
2021/06/11 11:34:36;;;;;;;11.93;9.27;;;26.30;62.90;;;;;;5086742;28;20489;-66
2021/06/11 11:37:02;;;;;;;10.35;8.20;;;26.30;63.40;;;;;;5089772;28;20123;-66
2021/06/11 11:39:28;;;;;;;10.20;9.20;;;26.50;63.30;;;;;;5094970;28;20056;-66
2021/06/11 11:41:55;;;;;;;12.18;10.77;;;26.50;62.10;;;;;;5086687;28;20033;-66
2021/06/11 11:44:21;;;;;;;8.95;7.18;;;26.40;62.30;;;;;;5091088;28;20107;-66
2021/06/11 11:46:47;;;;;;;13.32;7.70;;;26.40;62.40;;;;;;5089871;28;20227;-67
2021/06/11 11:49:12;;;;;;;10.82;8.05;;;26.50;62.40;;;;;;5087044;28;20032;-66
2021/06/11 11:51:38;;;;;;;9.80;7.65;;;26.50;61.90;;;;;;5090878;28;20016;-66
2021/06/11 11:54:05;;;;;;;6.45;5.30;;;26.50;62.20;;;;;;5094190;28;20051;-66
2021/06/11 11:56:30;;;;;;;4.35;3.28;;;26.50;61.90;;;;;;5091247;28;20466;-66
2021/06/11 11:58:56;;;;;;;6.05;4.25;;;26.60;61.80;;;;;;5078505;28;20020;-66
2021/06/11 12:01:23;;;;;;;7.13;5.75;;;26.60;61.00;;;;;;5082712;28;20561;-66
2021/06/11 12:03:48;;;;;;;8.07;5.53;;;26.50;60.90;;;;;;5082909;28;20486;-66
2021/06/11 12:06:14;;;;;;;10.07;7.25;;;26.50;60.90;;;;;;5083517;28;20047;-66
2021/06/11 12:08:39;;;;;;;5.80;4.88;;;26.40;61.20;;;;;;5094225;28;20028;-66
2021/06/11 12:11:05;;;;;;;10.32;6.38;;;26.40;60.30;;;;;;5075766;28;20048;-66
2021/06/11 12:13:30;;;;;;;6.03;4.38;;;26.40;60.40;;;;;;5075787;28;20390;-66
2021/06/11 12:15:57;;;;;;;11.43;5.07;;;26.40;60.30;;;;;;5078888;28;20032;-66
2021/06/11 12:18:23;;;;;;;7.88;6.45;;;26.60;59.80;;;;;;5087968;28;20496;-66
2021/06/11 12:20:49;;;;;;;10.98;8.60;;;26.70;59.90;;;;;;5096062;28;20024;-66
2021/06/11 12:23:14;;;;;;;10.85;6.72;;;26.70;59.50;;;;;;5083933;28;20028;-66
2021/06/11 12:25:40;;;;;;;7.35;5.70;;;26.60;59.30;;;;;;5074371;28;20028;-66
2021/06/11 12:28:06;;;;;;;7.18;5.03;;;26.70;59.60;;;;;;5064982;28;20028;-66
2021/06/11 12:30:31;;;;;;;11.02;7.05;;;26.90;60.10;;;;;;5082332;28;20043;-66
2021/06/11 12:32:57;;;;;;;6.68;4.97;;;26.90;60.00;;;;;;5085211;28;20020;-66
2021/06/11 12:35:23;;;;;;;6.15;4.28;;;26.80;59.20;;;;;;5085057;28;20497;-66
2021/06/11 12:37:51;;;;;;;3.63;2.35;;;26.70;58.30;;;;;;5084272;28;20026;-66